createdAt,value
2018-04-14T00:01:15.669Z,98409.92
2018-04-14T00:03:43.146Z,98412.14
2018-04-14T00:06:10.613Z,98417.95
2018-04-14T00:08:38.111Z,98410.02
2018-04-14T00:11:05.603Z,98416.23
2018-04-14T00:13:33.071Z,98413.23
2018-04-14T00:16:00.582Z,98416.18
2018-04-14T00:18:28.077Z,98426.22
2018-04-14T00:20:55.567Z,98418.46
2018-04-14T00:23:23.050Z,98427.27
2018-04-14T00:25:50.547Z,98427.39
2018-04-14T00:28:18.042Z,98430.50
2018-04-14T00:30:45.534Z,98428.34
2018-04-14T00:33:13.042Z,98427.03
2018-04-14T00:35:40.539Z,98429.64
2018-04-14T00:38:08.042Z,98428.28
2018-04-14T00:40:35.554Z,98426.71
2018-04-14T00:43:03.060Z,98427.22
2018-04-14T00:45:30.551Z,98427.83
2018-04-14T00:47:58.052Z,98431.86
2018-04-14T00:50:25.687Z,98431.11
2018-04-14T00:52:53.229Z,98429.55
2018-04-14T00:55:20.724Z,98427.81
2018-04-14T00:57:48.438Z,98423.79
2018-04-14T01:00:16.051Z,98433.78
2018-04-14T01:02:43.518Z,98436.57
2018-04-14T01:05:11.012Z,98437.06
2018-04-14T01:07:38.585Z,98444.82
2018-04-14T01:10:06.062Z,98438.44
2018-04-14T01:12:33.592Z,98441.53
2018-04-14T01:15:01.112Z,98441.77
2018-04-14T01:17:28.721Z,98450.16
2018-04-14T01:19:56.255Z,98446.68
2018-04-14T01:22:23.753Z,98439.91
2018-04-14T01:24:51.553Z,98446.20
2018-04-14T01:27:19.061Z,98445.71
2018-04-14T01:29:46.585Z,98444.16
2018-04-14T01:32:14.103Z,98450.23
2018-04-14T01:34:41.606Z,98450.72
2018-04-14T01:37:09.108Z,98451.35
2018-04-14T01:39:36.615Z,98454.73
2018-04-14T01:42:04.227Z,98463.02
2018-04-14T01:44:31.735Z,98453.63
2018-04-14T01:46:59.250Z,98452.86
2018-04-14T01:49:26.750Z,98445.87
2018-04-14T01:51:54.243Z,98455.97
2018-04-14T01:54:21.751Z,98453.48
2018-04-14T01:56:49.281Z,98453.64
2018-04-14T01:59:16.795Z,98454.67
2018-04-14T02:01:44.287Z,98456.03
2018-04-14T02:04:11.795Z,98453.11
2018-04-14T02:06:39.305Z,98454.14
2018-04-14T02:09:06.889Z,98458.27
2018-04-14T02:11:34.363Z,98458.86
2018-04-14T02:14:01.873Z,98452.16
2018-04-14T02:16:29.481Z,98457.83
2018-04-14T02:18:56.967Z,98460.02
2018-04-14T02:21:24.470Z,98461.47
2018-04-14T02:23:51.949Z,98452.89
2018-04-14T02:26:19.458Z,98453.77
2018-04-14T02:28:46.996Z,98455.51
2018-04-14T02:31:14.488Z,98460.92
2018-04-14T02:33:42.014Z,98457.83
2018-04-14T02:36:09.510Z,98450.41
2018-04-14T02:38:37.026Z,98455.17
2018-04-14T02:41:04.515Z,98455.12
2018-04-14T02:43:32.016Z,98452.09
2018-04-14T02:45:59.493Z,98458.89
2018-04-14T02:48:26.976Z,98462.04
2018-04-14T02:50:54.489Z,98465.17
2018-04-14T02:53:22.060Z,98468.16
2018-04-14T02:55:49.589Z,98467.34
2018-04-14T02:58:17.110Z,98469.84
2018-04-14T03:00:44.644Z,98476.83
2018-04-14T03:03:12.162Z,98475.19
2018-04-14T03:05:40.611Z,98466.14
2018-04-14T03:08:08.130Z,98477.45
2018-04-14T03:10:35.621Z,98479.28
2018-04-14T03:13:03.150Z,98477.31
2018-04-14T03:15:30.704Z,98485.89
2018-04-14T03:17:58.290Z,98481.55
2018-04-14T03:20:25.811Z,98483.77
2018-04-14T03:22:53.350Z,98483.00
2018-04-14T03:25:20.890Z,98479.58
2018-04-14T03:27:48.477Z,98481.59
2018-04-14T03:30:16.064Z,98481.55
2018-04-14T03:32:43.582Z,98479.52
2018-04-14T03:35:11.193Z,98483.00
2018-04-14T03:37:38.689Z,98488.32
2018-04-14T03:40:06.195Z,98488.34
2018-04-14T03:42:33.696Z,98491.36
2018-04-14T03:45:01.189Z,98490.50
2018-04-14T03:47:28.705Z,98487.28
2018-04-14T03:49:56.210Z,98485.54
2018-04-14T03:52:23.722Z,98490.78
2018-04-14T03:54:51.223Z,98493.00
2018-04-14T03:57:18.733Z,98489.05
2018-04-14T03:59:46.224Z,98494.63
2018-04-14T04:02:13.741Z,98498.34
2018-04-14T04:04:41.271Z,98491.75
2018-04-14T04:07:08.755Z,98496.47
2018-04-14T04:09:36.265Z,98503.02
2018-04-14T04:12:03.757Z,98509.81
2018-04-14T04:14:31.256Z,98510.33
2018-04-14T04:16:58.787Z,98518.48
2018-04-14T04:19:38.021Z,98517.64
2018-04-14T04:22:18.651Z,98524.67
2018-04-14T04:24:58.121Z,98527.31
2018-04-14T04:27:25.711Z,98536.64
2018-04-14T04:29:53.335Z,98533.52
2018-04-14T04:32:20.839Z,98531.88
2018-04-14T04:34:48.313Z,98542.14
2018-04-14T04:37:16.806Z,98552.63
2018-04-14T04:39:44.318Z,98556.00
2018-04-14T04:42:11.804Z,98556.61
2018-04-14T04:44:39.428Z,98563.58
2018-04-14T04:47:06.914Z,98565.78
2018-04-14T04:49:34.408Z,98571.76
2018-04-14T04:52:01.880Z,98557.64
2018-04-14T04:54:29.396Z,98558.08
2018-04-14T04:56:56.892Z,98564.78
2018-04-14T04:59:24.405Z,98562.05
2018-04-14T05:01:51.928Z,98562.01
2018-04-14T05:04:19.425Z,98567.75
2018-04-14T05:06:46.985Z,98570.22
2018-04-14T05:09:14.472Z,98572.72
2018-04-14T05:11:41.988Z,98580.23
2018-04-14T05:14:09.475Z,98581.83
2018-04-14T05:16:36.995Z,98584.66
2018-04-14T05:19:04.467Z,98590.14
2018-04-14T05:21:31.945Z,98593.91
2018-04-14T05:23:59.438Z,98603.34
2018-04-14T05:26:26.940Z,98594.61
2018-04-14T05:28:54.450Z,98599.98
2018-04-14T05:31:22.514Z,98595.11
2018-04-14T05:33:50.129Z,98600.39
2018-04-14T05:36:17.628Z,98603.73
2018-04-14T05:38:45.142Z,98604.95
2018-04-14T05:41:12.646Z,98600.05
2018-04-14T05:43:40.144Z,98599.56
2018-04-14T05:46:07.665Z,98601.52
2018-04-14T05:48:35.241Z,98588.72
2018-04-14T05:51:02.748Z,98590.55
2018-04-14T05:53:30.257Z,98594.84
2018-04-14T05:55:57.743Z,98604.17
2018-04-14T05:58:25.226Z,98601.48
2018-04-14T06:00:52.738Z,98605.66
2018-04-14T06:03:20.251Z,98602.73
2018-04-14T06:05:47.774Z,98606.05
2018-04-14T06:08:15.269Z,98615.69
2018-04-14T06:10:43.770Z,98616.55
2018-04-14T06:16:06.600Z,98619.55
2018-04-14T06:18:34.136Z,98625.90
2018-04-14T06:21:01.625Z,98631.27
2018-04-14T06:23:29.669Z,98642.45
2018-04-14T06:25:57.418Z,98639.47
2018-04-14T06:28:24.905Z,98640.03
2018-04-14T06:30:52.558Z,98648.50
2018-04-14T06:33:20.155Z,98651.13
2018-04-14T06:35:47.668Z,98654.09
2018-04-14T06:38:15.203Z,98658.38
2018-04-14T06:40:42.697Z,98655.31
2018-04-14T06:43:10.236Z,98665.63
2018-04-14T06:45:37.771Z,98669.91
2018-04-14T06:48:05.251Z,98669.92
2018-04-14T06:50:32.870Z,98667.67
2018-04-14T06:53:00.361Z,98674.50
2018-04-14T06:55:27.848Z,98676.23
2018-04-14T06:57:55.347Z,98672.88
2018-04-14T07:00:22.903Z,98679.50
2018-04-14T07:02:50.507Z,98674.34
2018-04-14T07:05:17.980Z,98674.17
2018-04-14T07:07:45.496Z,98671.27
2018-04-14T07:10:12.992Z,98672.05
2018-04-14T07:12:40.582Z,98670.23
2018-04-14T07:15:08.133Z,98671.28
2018-04-14T07:17:35.649Z,98681.55
2018-04-14T07:20:03.338Z,98674.12
2018-04-14T07:25:04.773Z,98685.69
2018-04-14T07:27:32.291Z,98686.35
2018-04-14T07:29:59.800Z,98690.20
2018-04-14T07:32:27.306Z,98688.69
2018-04-14T07:34:55.006Z,98687.10
2018-04-14T07:37:22.547Z,98688.92
2018-04-14T07:39:50.118Z,98691.45
2018-04-14T07:42:17.639Z,98689.73
2018-04-14T07:44:45.147Z,98688.78
2018-04-14T07:47:12.973Z,98691.48
2018-04-14T07:49:40.471Z,98689.09
2018-04-14T07:52:07.977Z,98688.81
2018-04-14T07:54:35.457Z,98691.69
2018-04-14T07:57:03.311Z,98694.20
2018-04-14T07:59:31.990Z,98695.77
2018-04-14T08:02:01.625Z,98704.11
2018-04-14T08:04:29.446Z,98699.59
2018-04-14T08:06:57.356Z,98702.12
2018-04-14T08:09:25.019Z,98704.64
2018-04-14T08:11:53.005Z,98698.59
2018-04-14T08:14:23.056Z,98696.53
2018-04-14T08:16:50.906Z,98700.83
2018-04-14T08:19:18.696Z,98697.66
2018-04-14T08:21:46.401Z,98699.99
2018-04-14T08:24:15.718Z,98697.96
2018-04-14T08:26:43.699Z,98705.15
2018-04-14T08:29:13.855Z,98696.61
2018-04-14T08:31:41.691Z,98702.58
2018-04-14T08:34:10.153Z,98702.41
2018-04-14T08:36:45.109Z,98700.28
2018-04-14T08:39:14.167Z,98699.24
2018-04-14T08:41:41.936Z,98701.52
2018-04-14T08:44:10.128Z,98702.80
2018-04-14T08:46:41.583Z,98705.59
2018-04-14T08:49:09.959Z,98704.47
2018-04-14T08:51:38.640Z,98706.64
2018-04-14T08:54:08.991Z,98700.27
2018-04-14T08:56:36.763Z,98699.59
2018-04-14T08:59:04.336Z,98701.41
2018-04-14T09:01:35.641Z,98703.80
2018-04-14T09:04:06.407Z,98701.69
2018-04-14T09:06:34.630Z,98700.63
2018-04-14T09:09:04.950Z,98697.41
2018-04-14T09:11:33.139Z,98701.83
2018-04-14T09:14:01.387Z,98695.80
2018-04-14T09:16:29.053Z,98697.98
2018-04-14T09:18:57.221Z,98697.21
2018-04-14T09:21:25.134Z,98691.55
2018-04-14T09:23:55.635Z,98685.13
2018-04-14T09:26:23.340Z,98694.64
2018-04-14T09:28:51.719Z,98690.64
2018-04-14T09:31:19.992Z,98690.38
2018-04-14T09:33:48.300Z,98693.65
2018-04-14T09:36:15.848Z,98696.72
2018-04-14T09:38:47.682Z,98697.08
2018-04-14T09:41:16.929Z,98688.70
2018-04-14T09:43:44.794Z,98689.69
2018-04-14T09:46:12.818Z,98690.17
2018-04-14T09:48:41.857Z,98679.86
2018-04-14T09:51:12.004Z,98681.71
2018-04-14T09:53:42.025Z,98675.50
2018-04-14T09:56:09.779Z,98669.23
2018-04-14T09:58:37.428Z,98664.73
2018-04-14T10:01:14.275Z,98672.77
2018-04-14T10:03:56.044Z,98672.52
2018-04-14T10:06:27.447Z,98668.38
2018-04-14T10:08:56.130Z,98668.16
2018-04-14T10:11:25.236Z,98663.73
2018-04-14T10:13:54.494Z,98661.87
2018-04-14T10:16:22.212Z,98662.67
2018-04-14T10:18:50.487Z,98664.16
2018-04-14T10:21:18.311Z,98665.88
2018-04-14T10:23:46.193Z,98666.59
2018-04-14T10:26:14.310Z,98668.70
2018-04-14T10:28:42.610Z,98662.58
2018-04-14T10:31:10.577Z,98660.58
2018-04-14T10:33:40.151Z,98662.94
2018-04-14T10:36:07.663Z,98661.48
2018-04-14T10:38:45.581Z,98649.98
2018-04-14T10:41:22.197Z,98649.28
2018-04-14T10:43:50.649Z,98642.34
2018-04-14T10:46:18.863Z,98641.80
2018-04-14T10:48:46.733Z,98633.47
2018-04-14T10:51:14.300Z,98637.95
2018-04-14T10:53:42.321Z,98634.80
2018-04-14T10:56:10.234Z,98636.25
2018-04-14T10:58:38.909Z,98627.85
2018-04-14T11:01:06.519Z,98628.18
2018-04-14T11:03:34.066Z,98633.80
2018-04-14T11:06:01.584Z,98633.80
2018-04-14T11:08:29.121Z,98630.58
2018-04-14T11:10:56.627Z,98632.91
2018-04-14T11:13:24.112Z,98634.91
2018-04-14T11:15:51.630Z,98631.84
2018-04-14T11:18:19.129Z,98627.42
2018-04-14T11:20:46.611Z,98626.51
2018-04-14T11:23:14.288Z,98626.73
2018-04-14T11:25:41.745Z,98624.38
2018-04-14T11:28:09.282Z,98623.26
2018-04-14T11:30:36.778Z,98617.27
2018-04-14T11:33:04.253Z,98618.52
2018-04-14T11:35:31.726Z,98616.90
2018-04-14T11:37:59.374Z,98618.12
2018-04-14T11:40:26.864Z,98615.44
2018-04-14T11:42:54.377Z,98616.78
2018-04-14T11:45:21.971Z,98622.70
2018-04-14T11:47:49.445Z,98622.08
2018-04-14T11:50:16.930Z,98623.05
2018-04-14T11:52:44.405Z,98628.70
2018-04-14T11:55:11.922Z,98626.69
2018-04-14T11:57:39.423Z,98626.70
2018-04-14T12:00:06.892Z,98623.47
2018-04-14T12:02:34.407Z,98625.50
2018-04-14T12:05:02.598Z,98627.28
2018-04-14T12:07:30.111Z,98622.80
2018-04-14T12:09:57.577Z,98609.55
2018-04-14T12:12:25.210Z,98616.73
2018-04-14T12:14:52.804Z,98615.67
2018-04-14T12:17:20.312Z,98618.52
2018-04-14T12:19:47.822Z,98626.25
2018-04-14T12:22:15.400Z,98620.09
2018-04-14T12:24:42.917Z,98615.02
2018-04-14T12:27:10.569Z,98606.50
2018-04-14T12:29:38.071Z,98616.00
2018-04-14T12:32:05.551Z,98611.36
2018-04-14T12:34:33.061Z,98616.38
2018-04-14T12:37:00.597Z,98615.23
2018-04-14T12:39:28.289Z,98616.26
2018-04-14T12:41:55.846Z,98611.53
2018-04-14T12:44:23.389Z,98617.51
2018-04-14T12:46:50.892Z,98615.72
2018-04-14T12:49:18.730Z,98608.02
2018-04-14T12:51:46.839Z,98623.40
2018-04-14T12:54:14.324Z,98620.91
2018-04-14T12:56:42.052Z,98624.77
2018-04-14T12:59:09.556Z,98626.98
2018-04-14T13:01:37.053Z,98626.89
2018-04-14T13:04:06.833Z,98631.77
2018-04-14T13:06:34.382Z,98628.00
2018-04-14T13:09:01.889Z,98624.13
2018-04-14T13:11:29.422Z,98614.41
2018-04-14T13:13:56.903Z,98612.52
2018-04-14T13:16:24.421Z,98605.05
2018-04-14T13:18:51.886Z,98600.02
2018-04-14T13:21:19.376Z,98599.34
2018-04-14T13:23:46.881Z,98595.01
2018-04-14T13:26:14.357Z,98584.72
2018-04-14T13:28:41.832Z,98577.52
2018-04-14T13:31:09.392Z,98580.17
2018-04-14T13:33:36.880Z,98578.67
2018-04-14T13:36:04.346Z,98578.48
2018-04-14T13:38:31.844Z,98587.50
2018-04-14T13:40:59.336Z,98574.16
2018-04-14T13:49:36.755Z,98568.08
2018-04-14T13:52:04.249Z,98576.45
2018-04-14T13:54:31.778Z,98569.41
2018-04-14T13:56:59.402Z,98569.34
2018-04-14T13:59:26.996Z,98560.03
2018-04-14T14:01:54.512Z,98552.77
2018-04-14T14:04:22.018Z,98541.47
2018-04-14T14:06:49.489Z,98535.58
2018-04-14T14:09:16.997Z,98524.88
2018-04-14T14:11:44.487Z,98518.90
2018-04-14T14:14:11.977Z,98509.28
2018-04-14T14:16:39.467Z,98502.39
2018-04-14T14:19:07.054Z,98505.19
2018-04-14T14:21:34.522Z,98493.95
2018-04-14T14:24:02.196Z,98489.94
2018-04-14T14:26:29.642Z,98489.88
2018-04-14T14:28:57.102Z,98483.75
2018-04-14T14:31:24.545Z,98472.65
2018-04-14T14:33:52.062Z,98459.26
2018-04-14T14:36:19.556Z,98465.51
2018-04-14T14:38:47.025Z,98471.91
2018-04-14T14:41:14.516Z,98464.56
2018-04-14T14:43:41.992Z,98459.66
2018-04-14T14:46:09.498Z,98446.26
2018-04-14T14:48:36.975Z,98451.05
2018-04-14T14:51:04.433Z,98455.19
2018-04-14T14:53:31.890Z,98450.75
2018-04-14T14:55:59.404Z,98443.05
2018-04-14T14:58:26.898Z,98437.97
2018-04-14T15:00:54.577Z,98436.25
2018-04-14T15:03:22.044Z,98429.69
2018-04-14T15:05:49.505Z,98425.45
2018-04-14T15:08:16.971Z,98422.55
2018-04-14T15:10:44.449Z,98414.63
2018-04-14T15:13:11.990Z,98418.42
2018-04-14T15:15:39.445Z,98426.59
2018-04-14T15:18:07.008Z,98421.02
2018-04-14T15:20:34.465Z,98419.52
2018-04-14T15:23:01.947Z,98414.64
2018-04-14T15:25:29.527Z,98421.69
2018-04-14T15:27:57.017Z,98417.08
2018-04-14T15:30:24.574Z,98420.22
2018-04-14T15:32:52.065Z,98416.11
2018-04-14T15:35:19.556Z,98414.42
2018-04-14T15:37:47.062Z,98414.47
2018-04-14T15:40:14.714Z,98406.80
2018-04-14T15:42:42.173Z,98420.82
2018-04-14T15:45:09.653Z,98417.37
2018-04-14T15:47:37.138Z,98416.22
2018-04-14T15:50:04.608Z,98416.59
2018-04-14T15:52:32.108Z,98424.95
2018-04-14T15:54:59.628Z,98413.07
2018-04-14T15:57:27.109Z,98409.63
2018-04-14T15:59:54.564Z,98409.38
2018-04-14T16:02:22.059Z,98405.73
2018-04-14T16:04:49.537Z,98409.98
2018-04-14T16:07:17.057Z,98405.08
2018-04-14T16:09:44.565Z,98407.50
2018-04-14T16:12:12.713Z,98407.56
2018-04-14T16:14:40.203Z,98406.42
2018-04-14T16:17:08.018Z,98398.12
2018-04-14T16:19:35.532Z,98403.98
2018-04-14T16:22:03.022Z,98401.37
2018-04-14T16:24:30.495Z,98400.01
2018-04-14T16:26:58.044Z,98394.98
2018-04-14T16:29:25.521Z,98395.75
2018-04-14T16:31:53.201Z,98397.95
2018-04-14T16:34:20.685Z,98405.02
2018-04-14T16:36:48.167Z,98403.02
2018-04-14T16:39:15.788Z,98397.02
2018-04-14T16:41:43.681Z,98395.22
2018-04-14T16:44:11.460Z,98393.47
2018-04-14T16:46:39.005Z,98399.13
2018-04-14T16:49:06.580Z,98401.88
2018-04-14T16:51:34.071Z,98396.33
2018-04-14T16:54:01.659Z,98398.97
2018-04-14T16:56:29.196Z,98398.64
2018-04-14T16:58:56.708Z,98397.73
2018-04-14T17:01:24.199Z,98396.62
2018-04-14T17:03:51.684Z,98398.18
2018-04-14T17:06:19.324Z,98402.03
2018-04-14T17:08:46.815Z,98400.39
2018-04-14T17:11:14.395Z,98398.70
2018-04-14T17:13:41.904Z,98395.38
2018-04-14T17:16:09.567Z,98388.67
2018-04-14T17:18:37.082Z,98391.23
2018-04-14T17:21:04.588Z,98392.39
2018-04-14T17:23:32.066Z,98394.20
2018-04-14T17:25:59.552Z,98394.09
2018-04-14T17:28:27.053Z,98385.05
2018-04-14T17:30:54.541Z,98392.54
2018-04-14T17:33:22.053Z,98386.98
2018-04-14T17:35:49.618Z,98396.85
2018-04-14T17:38:17.115Z,98393.66
2018-04-14T17:40:44.601Z,98388.27
2018-04-14T17:43:12.106Z,98381.66
2018-04-14T17:45:39.567Z,98383.97
2018-04-14T17:48:07.029Z,98378.82
2018-04-14T17:50:34.497Z,98378.13
2018-04-14T17:53:01.963Z,98387.09
2018-04-14T17:55:29.474Z,98383.48
2018-04-14T17:57:56.951Z,98381.13
2018-04-14T18:00:24.448Z,98384.34
2018-04-14T18:02:51.931Z,98387.55
2018-04-14T18:05:19.404Z,98389.17
2018-04-14T18:07:46.920Z,98395.21
2018-04-14T18:10:14.502Z,98397.38
2018-04-14T18:12:43.021Z,98399.23
2018-04-14T18:15:10.498Z,98406.27
2018-04-14T18:17:38.086Z,98404.05
2018-04-14T18:20:05.743Z,98406.52
2018-04-14T18:22:33.350Z,98408.89
2018-04-14T18:25:00.823Z,98409.04
2018-04-14T18:27:28.365Z,98414.59
2018-04-14T18:29:55.953Z,98417.06
2018-04-14T18:32:24.749Z,98410.87
2018-04-14T18:34:52.350Z,98412.09
2018-04-14T18:37:22.849Z,98423.91
2018-04-14T18:39:50.339Z,98422.33
2018-04-14T18:42:17.921Z,98424.07
2018-04-14T18:44:45.565Z,98425.48
2018-04-14T18:47:13.219Z,98430.47
2018-04-14T18:49:40.760Z,98426.42
2018-04-14T18:52:08.231Z,98428.55
2018-04-14T18:54:37.049Z,98428.09
2018-04-14T18:57:04.634Z,98426.59
2018-04-14T19:02:14.789Z,98425.39
2018-04-14T19:04:42.286Z,98426.98
2018-04-14T19:07:09.797Z,98422.70
2018-04-14T19:09:39.004Z,98423.72
2018-04-14T19:12:06.508Z,98425.91
2018-04-14T19:14:33.977Z,98429.87
2018-04-14T19:17:01.518Z,98427.00
2018-04-14T19:19:29.049Z,98432.11
2018-04-14T19:21:56.628Z,98438.17
2018-04-14T19:24:24.133Z,98430.66
2018-04-14T19:26:51.706Z,98437.45
2018-04-14T19:29:23.730Z,98430.33
2018-04-14T19:31:51.361Z,98438.86
2018-04-14T19:34:18.841Z,98437.77
2018-04-14T19:36:46.419Z,98442.70
2018-04-14T19:39:13.974Z,98438.22
2018-04-14T19:41:41.498Z,98444.13
2018-04-14T19:44:09.024Z,98444.98
2018-04-14T19:46:36.520Z,98442.04
2018-04-14T19:49:04.069Z,98443.36
2018-04-14T19:51:32.744Z,98441.58
2018-04-14T19:54:01.492Z,98439.27
2018-04-14T19:56:29.013Z,98436.92
2018-04-14T19:58:56.503Z,98439.95
2018-04-14T20:01:26.940Z,98436.70
2018-04-14T20:03:58.950Z,98434.30
2018-04-14T20:06:26.499Z,98435.77
2018-04-14T20:08:53.989Z,98428.88
2018-04-14T20:11:21.473Z,98424.34
2018-04-14T20:13:49.021Z,98425.83
2018-04-14T20:16:16.562Z,98423.11
2018-04-14T20:18:44.796Z,98421.66
2018-04-14T20:21:12.341Z,98419.36
2018-04-14T20:23:39.878Z,98417.94
2018-04-14T20:26:07.379Z,98411.91
2018-04-14T20:28:34.873Z,98402.48
2018-04-14T20:31:02.358Z,98405.93
2018-04-14T20:33:29.855Z,98402.23
2018-04-14T20:35:57.343Z,98401.33
2018-04-14T20:38:24.908Z,98397.63
2018-04-14T20:40:52.438Z,98396.47
2018-04-14T20:43:19.974Z,98400.74
2018-04-14T20:45:47.470Z,98395.52
2018-04-14T20:48:14.940Z,98399.94
2018-04-14T20:50:42.582Z,98398.63
2018-04-14T20:53:10.084Z,98390.39
2018-04-14T20:55:37.639Z,98395.93
2018-04-14T20:58:05.243Z,98390.42
2018-04-14T21:00:32.764Z,98388.52
2018-04-14T21:03:00.331Z,98385.10
2018-04-14T21:05:27.979Z,98386.40
2018-04-14T21:07:55.571Z,98385.64
2018-04-14T21:10:23.038Z,98382.48
2018-04-14T21:12:50.523Z,98377.95
2018-04-14T21:15:18.145Z,98368.88
2018-04-14T21:17:45.708Z,98365.48
2018-04-14T21:20:13.212Z,98367.44
2018-04-14T21:22:40.717Z,98359.83
2018-04-14T21:25:08.214Z,98362.80
2018-04-14T21:27:35.707Z,98355.14
2018-04-14T21:30:03.222Z,98355.25
2018-04-14T21:32:30.695Z,98365.39
2018-04-14T21:34:58.191Z,98363.41
2018-04-14T21:37:25.682Z,98357.30
2018-04-14T21:39:53.165Z,98359.90
2018-04-14T21:42:20.660Z,98349.55
2018-04-14T21:44:48.145Z,98338.61
2018-04-14T21:47:15.721Z,98340.89
2018-04-14T21:49:44.065Z,98335.58
2018-04-14T21:52:11.740Z,98334.98
2018-04-14T21:54:39.225Z,98337.59
2018-04-14T21:57:06.737Z,98328.47
2018-04-14T21:59:34.222Z,98332.37
2018-04-14T22:02:01.738Z,98326.17
2018-04-14T22:04:29.370Z,98316.69
2018-04-14T22:06:56.877Z,98315.15
2018-04-14T22:09:24.394Z,98306.45
2018-04-14T22:11:51.853Z,98304.45
2018-04-14T22:14:31.230Z,98306.50
2018-04-14T22:16:58.832Z,98300.26
2018-04-14T22:19:26.419Z,98305.77
2018-04-14T22:21:53.875Z,98301.59
2018-04-14T22:24:21.442Z,98306.32
2018-04-14T22:26:49.154Z,98308.83
2018-04-14T22:29:19.630Z,98307.68
2018-04-14T22:31:48.962Z,98310.94
2018-04-14T22:34:16.456Z,98310.23
2018-04-14T22:36:43.937Z,98307.33
2018-04-14T22:39:11.664Z,98306.36
2018-04-14T22:41:39.265Z,98302.67
2018-04-14T22:44:06.742Z,98302.64
2018-04-14T22:46:34.284Z,98298.94
2018-04-14T22:49:02.108Z,98305.64
2018-04-14T22:51:29.591Z,98306.53
2018-04-14T22:53:57.075Z,98303.14
2018-04-14T22:56:24.572Z,98303.98
2018-04-14T22:58:52.068Z,98297.02
2018-04-14T23:01:19.548Z,98303.23
2018-04-14T23:03:47.008Z,98301.86
2018-04-14T23:06:14.509Z,98297.02
2018-04-14T23:08:42.094Z,98301.79
2018-04-14T23:11:09.547Z,98305.33
2018-04-14T23:13:37.031Z,98305.86
2018-04-14T23:16:04.626Z,98303.69
2018-04-14T23:18:32.133Z,98299.21
2018-04-14T23:20:59.615Z,98293.88
2018-04-14T23:23:27.101Z,98289.36
2018-04-14T23:25:54.614Z,98288.93
2018-04-14T23:28:22.108Z,98291.88
2018-04-14T23:30:49.589Z,98283.05
2018-04-14T23:33:17.075Z,98286.62
2018-04-14T23:35:44.595Z,98281.84
2018-04-14T23:38:12.163Z,98281.95
2018-04-14T23:40:39.621Z,98268.73
2018-04-14T23:43:07.145Z,98269.33
2018-04-14T23:45:34.631Z,98266.27
2018-04-14T23:48:02.145Z,98266.88
2018-04-14T23:50:29.618Z,98265.56
2018-04-14T23:52:57.180Z,98260.80
2018-04-14T23:55:24.638Z,98255.14
2018-04-14T23:57:52.115Z,98255.46
